Time;durP1;ratioP1;P1;durP2;ratioP2;P2;SDS_P1;SDS_P2;PMS_P1;PMS_P2;Temp;Humidity;BMP_temperature;BMP_pressure;BME280_temperature;BME280_humidity;BME280_pressure;Samples;Min_cycle;Max_cycle;Signal;HPM_P1;HPM_P2
2022/04/25 00:02:00;;;;;;;26.40;14.73;;;;;;;;;;5001540;28;20708;-77
2022/04/25 00:04:27;;;;;;;26.33;14.20;;;;;;;;;;5001495;28;20227;-78
2022/04/25 00:06:54;;;;;;;27.00;15.17;;;;;;;;;;5000862;28;20288;-76
2022/04/25 00:09:21;;;;;;;24.77;14.73;;;;;;;;;;5007492;28;20200;-78
2022/04/25 00:11:50;;;;;;;27.70;15.80;;;;;;;;;;5005286;28;20242;-78
2022/04/25 00:14:17;;;;;;;27.87;15.70;;;;;;;;;;5013812;28;20236;-78
2022/04/25 00:16:45;;;;;;;24.77;14.73;;;;;;;;;;5002729;28;20292;-78
2022/04/25 00:19:13;;;;;;;29.87;16.00;;;;;;;;;;5005688;28;20214;-78
2022/04/25 00:21:40;;;;;;;24.90;14.93;;;;;;;;;;5003716;28;20621;-76
2022/04/25 00:24:07;;;;;;;26.23;15.93;;;;;;;;;;4998028;28;20219;-78
2022/04/25 00:26:35;;;;;;;29.57;16.10;;;;;;;;;;5002094;28;20211;-77
2022/04/25 00:29:02;;;;;;;26.20;15.43;;;;;;;;;;5002256;28;20201;-77
2022/04/25 00:31:29;;;;;;;28.43;16.57;;;;;;;;;;5001170;28;20228;-78
2022/04/25 00:33:56;;;;;;;27.73;15.77;;;;;;;;;;5004528;28;20204;-77
2022/04/25 00:36:25;;;;;;;24.90;15.57;;;;;;;;;;5001762;28;20234;-76
2022/04/25 00:38:52;;;;;;;25.90;14.87;;;;;;;;;;4998157;28;20201;-78
2022/04/25 00:41:19;;;;;;;27.80;14.70;;;;;;;;;;4994755;28;20292;-78
2022/04/25 00:43:46;;;;;;;28.93;16.57;;;;;;;;;;5002044;28;20271;-78
2022/04/25 00:46:21;;;;;;;30.37;16.40;;;;;;;;;;5015015;28;20226;-78
2022/04/25 00:51:17;;;;;;;30.17;16.93;;;;;;;;;;4984401;28;20631;-83
2022/04/25 00:54:00;;;;;;;30.57;16.17;;;;;;;;;;4987868;28;20224;-83
2022/04/25 00:56:31;;;;;;;29.17;15.80;;;;;;;;;;4989167;28;20228;-84
2022/04/25 00:58:58;;;;;;;29.57;16.17;;;;;;;;;;4987415;28;20740;-84
2022/04/25 01:01:26;;;;;;;25.80;15.87;;;;;;;;;;4986930;28;20226;-84
2022/04/25 01:03:54;;;;;;;28.80;15.50;;;;;;;;;;4984786;28;20206;-83
2022/04/25 01:06:21;;;;;;;29.23;16.40;;;;;;;;;;4985302;28;20209;-84
2022/04/25 01:08:51;;;;;;;26.23;16.23;;;;;;;;;;4983066;28;20292;-83
2022/04/25 01:11:20;;;;;;;28.67;16.33;;;;;;;;;;4987030;28;20685;-84
2022/04/25 01:13:48;;;;;;;31.57;16.53;;;;;;;;;;4986899;28;20585;-83
2022/04/25 01:16:15;;;;;;;33.13;17.97;;;;;;;;;;4987012;28;20652;-84
2022/04/25 01:18:43;;;;;;;30.47;16.80;;;;;;;;;;4981276;28;20210;-84
2022/04/25 01:21:13;;;;;;;31.63;16.70;;;;;;;;;;4985870;28;20224;-83
2022/04/25 01:29:12;;;;;;;31.10;17.83;;;;;;;;;;4985221;28;20715;-84
2022/04/25 01:31:39;;;;;;;31.53;17.43;;;;;;;;;;4986584;28;20692;-84
2022/04/25 01:34:07;;;;;;;29.60;17.37;;;;;;;;;;4982314;28;20201;-84
2022/04/25 01:36:34;;;;;;;30.73;17.90;;;;;;;;;;4983684;28;20784;-84
2022/04/25 01:39:03;;;;;;;33.70;18.60;;;;;;;;;;4983636;28;20267;-84
2022/04/25 01:41:30;;;;;;;32.70;17.60;;;;;;;;;;4982199;28;20680;-84
2022/04/25 01:43:58;;;;;;;29.20;17.17;;;;;;;;;;4986776;28;20200;-84
2022/04/25 01:46:25;;;;;;;29.30;16.97;;;;;;;;;;4984194;28;20225;-84
2022/04/25 01:48:56;;;;;;;27.87;17.20;;;;;;;;;;4982938;28;20205;-84
2022/04/25 01:51:23;;;;;;;29.97;17.90;;;;;;;;;;4984683;28;20225;-84
2022/04/25 01:53:53;;;;;;;30.00;16.17;;;;;;;;;;4985961;28;20201;-83
2022/04/25 01:56:24;;;;;;;29.60;17.93;;;;;;;;;;4986830;28;20312;-83
2022/04/25 01:58:54;;;;;;;31.33;17.53;;;;;;;;;;4985569;28;20300;-84
2022/04/25 02:01:21;;;;;;;32.73;18.00;;;;;;;;;;4984451;28;20210;-84
2022/04/25 02:03:49;;;;;;;33.67;18.10;;;;;;;;;;4981569;28;20677;-84
2022/04/25 02:06:16;;;;;;;32.03;18.07;;;;;;;;;;4983467;28;20217;-84
2022/04/25 02:08:44;;;;;;;31.50;18.03;;;;;;;;;;4986540;28;20231;-84
2022/04/25 02:11:24;;;;;;;29.20;17.90;;;;;;;;;;4985864;28;20233;-84
2022/04/25 02:13:59;;;;;;;34.20;19.40;;;;;;;;;;4985173;28;20327;-84
2022/04/25 02:16:26;;;;;;;29.67;17.00;;;;;;;;;;4982087;28;20229;-83
2022/04/25 02:18:54;;;;;;;37.27;18.53;;;;;;;;;;4981930;28;20279;-84
2022/04/25 02:21:22;;;;;;;29.60;17.10;;;;;;;;;;4983402;28;20228;-84
2022/04/25 02:23:52;;;;;;;29.80;17.13;;;;;;;;;;4984048;28;20673;-84
2022/04/25 02:26:20;;;;;;;30.37;18.10;;;;;;;;;;4986387;28;20220;-84
2022/04/25 02:28:48;;;;;;;31.67;18.50;;;;;;;;;;4985981;28;20729;-84
2022/04/25 02:31:17;;;;;;;26.63;16.40;;;;;;;;;;4994563;28;20216;-84
2022/04/25 02:33:45;;;;;;;33.77;18.87;;;;;;;;;;4991830;28;20295;-84
2022/04/25 02:36:12;;;;;;;34.07;18.97;;;;;;;;;;4992374;28;20233;-84
2022/04/25 02:38:42;;;;;;;31.83;18.40;;;;;;;;;;4994285;28;20201;-84
2022/04/25 02:41:09;;;;;;;29.20;17.70;;;;;;;;;;4989848;28;20237;-84
2022/04/25 02:43:39;;;;;;;29.67;16.80;;;;;;;;;;4992117;28;20642;-84
2022/04/25 02:46:07;;;;;;;30.23;17.40;;;;;;;;;;4994445;28;20228;-84
2022/04/25 02:48:36;;;;;;;30.57;14.97;;;;;;;;;;4994347;28;20288;-84
2022/04/25 02:51:04;;;;;;;25.43;14.17;;;;;;;;;;4988624;28;20368;-84
2022/04/25 02:53:35;;;;;;;27.60;16.70;;;;;;;;;;4991981;28;20268;-83
2022/04/25 02:56:05;;;;;;;25.77;14.60;;;;;;;;;;4995066;28;20217;-83
2022/04/25 02:58:33;;;;;;;28.30;15.53;;;;;;;;;;4994212;28;20222;-84
2022/04/25 03:01:01;;;;;;;30.27;18.00;;;;;;;;;;4993384;28;20260;-82
2022/04/25 03:03:31;;;;;;;30.93;17.87;;;;;;;;;;4995861;28;20558;-84
2022/04/25 03:06:03;;;;;;;34.27;18.47;;;;;;;;;;4991086;28;20558;-84
2022/04/25 03:08:30;;;;;;;30.40;16.93;;;;;;;;;;4992888;28;20223;-84
2022/04/25 03:10:57;;;;;;;30.33;16.10;;;;;;;;;;4993154;28;20229;-84
2022/04/25 03:13:25;;;;;;;29.17;15.73;;;;;;;;;;4989732;28;20205;-83
2022/04/25 03:15:55;;;;;;;30.53;15.93;;;;;;;;;;4992627;28;20228;-83
2022/04/25 03:18:23;;;;;;;29.90;16.77;;;;;;;;;;4992955;28;20268;-83
2022/04/25 03:20:51;;;;;;;24.87;15.20;;;;;;;;;;4990980;28;20263;-83
2022/04/25 03:23:21;;;;;;;24.03;14.07;;;;;;;;;;4992109;28;20205;-84
2022/04/25 03:25:50;;;;;;;24.07;13.30;;;;;;;;;;4989546;28;20221;-84
2022/04/25 03:28:17;;;;;;;26.00;13.03;;;;;;;;;;4985952;28;20219;-83
2022/04/25 03:30:45;;;;;;;23.93;13.10;;;;;;;;;;4982416;28;20233;-83
2022/04/25 03:33:12;;;;;;;21.87;12.47;;;;;;;;;;4988478;28;20247;-83
2022/04/25 03:35:39;;;;;;;19.23;11.53;;;;;;;;;;4985768;28;20232;-84
2022/04/25 03:38:07;;;;;;;25.30;13.27;;;;;;;;;;4987054;28;20212;-82
2022/04/25 03:40:40;;;;;;;23.10;12.60;;;;;;;;;;4987926;28;20256;-83
2022/04/25 03:43:07;;;;;;;17.67;11.10;;;;;;;;;;4987460;28;20233;-82
2022/04/25 03:45:40;;;;;;;22.57;11.17;;;;;;;;;;4985573;28;20241;-83
2022/04/25 03:48:10;;;;;;;19.33;10.53;;;;;;;;;;4987849;28;20264;-83
2022/04/25 03:50:38;;;;;;;17.43;10.20;;;;;;;;;;4985387;28;20295;-83
2022/04/25 03:53:07;;;;;;;17.73;10.60;;;;;;;;;;4987408;28;20205;-83
2022/04/25 03:58:23;;;;;;;18.90;10.70;;;;;;;;;;4986934;28;20212;-83
2022/04/25 04:00:53;;;;;;;18.47;10.60;;;;;;;;;;4985874;28;20228;-83
2022/04/25 04:03:20;;;;;;;18.13;10.83;;;;;;;;;;4987076;28;20233;-83
2022/04/25 04:05:48;;;;;;;18.67;10.47;;;;;;;;;;4987401;28;20225;-82
2022/04/25 04:08:16;;;;;;;20.23;10.57;;;;;;;;;;4984315;28;20291;-82
2022/04/25 04:10:44;;;;;;;18.63;11.00;;;;;;;;;;4989401;28;20276;-82
2022/04/25 04:13:11;;;;;;;19.23;11.17;;;;;;;;;;4986278;28;20298;-83
2022/04/25 04:15:40;;;;;;;18.70;11.77;;;;;;;;;;4990421;28;20567;-82
2022/04/25 04:18:07;;;;;;;23.67;11.17;;;;;;;;;;4989845;28;20252;-82
2022/04/25 04:20:35;;;;;;;18.70;11.00;;;;;;;;;;4988378;28;20230;-82
2022/04/25 04:23:03;;;;;;;20.60;12.17;;;;;;;;;;4989793;28;20256;-83
2022/04/25 04:25:32;;;;;;;19.87;11.47;;;;;;;;;;4988243;28;20213;-83
2022/04/25 04:27:59;;;;;;;19.83;11.70;;;;;;;;;;4990088;28;20212;-83
2022/04/25 04:30:29;;;;;;;20.20;12.03;;;;;;;;;;4983762;28;20594;-83
2022/04/25 04:32:58;;;;;;;19.70;11.73;;;;;;;;;;4985624;28;20204;-83
2022/04/25 04:38:12;;;;;;;22.07;12.13;;;;;;;;;;4990927;28;20212;-83
2022/04/25 04:40:39;;;;;;;23.20;12.40;;;;;;;;;;4991606;28;20453;-84
2022/04/25 04:43:08;;;;;;;19.63;11.07;;;;;;;;;;4994056;28;20213;-83
2022/04/25 04:45:36;;;;;;;20.37;11.33;;;;;;;;;;4993269;28;20748;-84
2022/04/25 04:48:05;;;;;;;20.57;10.53;;;;;;;;;;4992318;28;20216;-82
2022/04/25 04:50:32;;;;;;;21.27;10.53;;;;;;;;;;4992843;28;20240;-84
2022/04/25 04:53:00;;;;;;;20.33;10.13;;;;;;;;;;4992286;28;20297;-83
2022/04/25 04:55:29;;;;;;;16.53;9.80;;;;;;;;;;4993721;28;20232;-84
2022/04/25 04:57:56;;;;;;;15.90;9.77;;;;;;;;;;4991391;28;20232;-84
2022/04/25 05:00:23;;;;;;;23.30;10.30;;;;;;;;;;4991375;28;20237;-83
2022/04/25 05:02:51;;;;;;;16.97;10.43;;;;;;;;;;4990472;28;20244;-84
2022/04/25 05:05:20;;;;;;;17.37;10.20;;;;;;;;;;4988752;28;20211;-82
2022/04/25 05:07:47;;;;;;;19.77;9.97;;;;;;;;;;4991423;28;20204;-82
2022/04/25 05:10:15;;;;;;;17.47;10.53;;;;;;;;;;4991577;28;20233;-84
2022/04/25 05:12:56;;;;;;;19.13;10.03;;;;;;;;;;4988957;28;20201;-83
2022/04/25 05:15:23;;;;;;;15.93;9.80;;;;;;;;;;4988778;28;20256;-84
2022/04/25 05:17:53;;;;;;;19.73;11.17;;;;;;;;;;4989195;28;20217;-84
2022/04/25 05:20:25;;;;;;;16.93;9.73;;;;;;;;;;4986450;28;20225;-83
2022/04/25 05:22:53;;;;;;;16.07;10.17;;;;;;;;;;4987676;28;20213;-84
2022/04/25 05:25:21;;;;;;;17.10;9.70;;;;;;;;;;4987487;28;20217;-84
2022/04/25 05:27:49;;;;;;;18.20;9.93;;;;;;;;;;4989070;28;20212;-82
2022/04/25 05:30:18;;;;;;;16.07;9.90;;;;;;;;;;4987344;28;20232;-82
2022/04/25 05:32:46;;;;;;;16.70;9.93;;;;;;;;;;4987096;28;20207;-84
2022/04/25 05:35:16;;;;;;;28.00;18.17;;;;;;;;;;4988824;28;20220;-83
2022/04/25 05:37:45;;;;;;;17.73;11.50;;;;;;;;;;4988405;28;20229;-83
2022/04/25 05:40:15;;;;;;;21.00;12.23;;;;;;;;;;4984553;28;20343;-84
2022/04/25 05:42:44;;;;;;;22.03;11.53;;;;;;;;;;4984530;28;20300;-83
2022/04/25 05:45:12;;;;;;;17.13;9.70;;;;;;;;;;4983938;28;20226;-84
2022/04/25 05:47:39;;;;;;;17.93;9.90;;;;;;;;;;4987172;28;20220;-83
2022/04/25 05:52:54;;;;;;;14.97;9.00;;;;;;;;;;4990885;28;20204;-82
2022/04/25 05:55:24;;;;;;;13.73;8.67;;;;;;;;;;4986868;28;20213;-82
2022/04/25 05:57:51;;;;;;;14.43;8.83;;;;;;;;;;4983845;28;20276;-85
2022/04/25 06:00:19;;;;;;;17.30;8.77;;;;;;;;;;4984475;28;20225;-84
2022/04/25 06:02:47;;;;;;;18.63;9.93;;;;;;;;;;4983861;28;20229;-82
2022/04/25 06:05:15;;;;;;;15.37;8.70;;;;;;;;;;4984567;28;20206;-82
2022/04/25 06:07:43;;;;;;;14.20;8.50;;;;;;;;;;4989805;28;20204;-84
2022/04/25 06:10:13;;;;;;;16.83;9.00;;;;;;;;;;4991497;28;20221;-83
2022/04/25 06:12:41;;;;;;;16.03;9.60;;;;;;;;;;4992056;28;20211;-83
2022/04/25 06:15:11;;;;;;;17.57;10.10;;;;;;;;;;4987236;28;20263;-83
2022/04/25 06:17:46;;;;;;;17.70;10.23;;;;;;;;;;4988154;28;20232;-84
2022/04/25 06:20:13;;;;;;;21.73;9.93;;;;;;;;;;4988350;28;20288;-82
2022/04/25 06:22:42;;;;;;;14.47;9.17;;;;;;;;;;4990684;28;20618;-82
2022/04/25 06:25:11;;;;;;;19.13;10.37;;;;;;;;;;4986471;28;20731;-83
2022/04/25 06:27:39;;;;;;;20.33;10.67;;;;;;;;;;4989212;28;20212;-82
2022/04/25 06:30:06;;;;;;;16.43;10.30;;;;;;;;;;4985288;28;20300;-83
2022/04/25 06:32:34;;;;;;;15.23;9.30;;;;;;;;;;4989935;28;20215;-82
2022/04/25 06:35:03;;;;;;;17.60;8.77;;;;;;;;;;4984826;28;20213;-86
2022/04/25 06:37:31;;;;;;;14.53;8.73;;;;;;;;;;4989138;28;20217;-83
2022/04/25 06:39:58;;;;;;;12.57;8.10;;;;;;;;;;4988304;28;20750;-83
2022/04/25 06:42:30;;;;;;;18.53;8.17;;;;;;;;;;4987366;28;20584;-83
2022/04/25 06:44:58;;;;;;;14.60;7.90;;;;;;;;;;4988703;28;20241;-84
2022/04/25 06:47:25;;;;;;;11.57;7.50;;;;;;;;;;4988843;28;20217;-83
2022/04/25 06:49:54;;;;;;;14.03;7.80;;;;;;;;;;5043283;22;20235;-81
2022/04/25 06:52:21;;;;;;;15.73;8.27;;;;;;;;;;5009046;28;20312;-83
2022/04/25 06:54:49;;;;;;;9.43;6.57;;;;;;;;;;5007910;28;20243;-82
2022/04/25 06:57:16;;;;;;;12.53;7.50;;;;;;;;;;5010107;28;20220;-82
2022/04/25 06:59:44;;;;;;;11.00;7.30;;;;;;;;;;5007046;28;20228;-81
2022/04/25 07:02:11;;;;;;;13.30;7.83;;;;;;;;;;5008393;28;20351;-83
2022/04/25 07:04:42;;;;;;;11.97;8.07;;;;;;;;;;5003110;28;20763;-83
2022/04/25 07:07:09;;;;;;;11.37;7.87;;;;;;;;;;5003938;28;20221;-83
2022/04/25 07:09:36;;;;;;;11.23;7.30;;;;;;;;;;5005168;28;20708;-82
2022/04/25 07:12:04;;;;;;;12.37;7.90;;;;;;;;;;5005614;28;20244;-82
2022/04/25 07:14:33;;;;;;;11.00;7.43;;;;;;;;;;5002868;28;20697;-82
2022/04/25 07:17:03;;;;;;;15.17;8.27;;;;;;;;;;5016741;28;20208;-80
2022/04/25 07:19:30;;;;;;;11.53;7.67;;;;;;;;;;5014909;28;20251;-80
2022/04/25 07:30:14;;;;;;;13.43;8.50;;;;;;;;;;5005274;28;20231;-83
2022/04/25 07:32:42;;;;;;;15.20;8.17;;;;;;;;;;5008601;28;20272;-83
2022/04/25 07:35:10;;;;;;;13.03;8.07;;;;;;;;;;5008088;28;20205;-83
2022/04/25 07:37:37;;;;;;;14.10;7.90;;;;;;;;;;5007859;28;20255;-83
2022/04/25 07:40:06;;;;;;;11.33;7.77;;;;;;;;;;5001937;28;20688;-83
2022/04/25 07:42:34;;;;;;;11.17;7.77;;;;;;;;;;5001047;28;20339;-83
2022/04/25 07:45:01;;;;;;;16.07;9.17;;;;;;;;;;5000183;28;20204;-82
2022/04/25 07:47:28;;;;;;;18.33;9.33;;;;;;;;;;5003947;28;20209;-83
2022/04/25 07:49:56;;;;;;;17.00;9.67;;;;;;;;;;4997931;28;20724;-82
2022/04/25 07:52:23;;;;;;;17.40;9.67;;;;;;;;;;5001511;28;20216;-82
2022/04/25 07:54:54;;;;;;;17.83;9.53;;;;;;;;;;5004009;28;20201;-84
2022/04/25 07:57:21;;;;;;;17.93;9.53;;;;;;;;;;4999888;28;20303;-83
2022/04/25 07:59:48;;;;;;;17.50;9.90;;;;;;;;;;4999804;28;20318;-82
2022/04/25 08:02:17;;;;;;;18.07;10.30;;;;;;;;;;5006210;28;20211;-82
2022/04/25 08:04:45;;;;;;;18.57;10.03;;;;;;;;;;5003163;28;20291;-83
2022/04/25 08:07:13;;;;;;;17.70;10.63;;;;;;;;;;5004698;28;20208;-83
2022/04/25 08:09:41;;;;;;;16.17;10.10;;;;;;;;;;5001609;28;20247;-82
2022/04/25 08:20:23;;;;;;;19.17;9.83;;;;;;;;;;5001132;28;20219;-83
2022/04/25 08:22:52;;;;;;;15.03;9.27;;;;;;;;;;5001972;28;20209;-83
2022/04/25 08:25:19;;;;;;;22.13;9.03;;;;;;;;;;5002754;28;20208;-82
2022/04/25 08:27:46;;;;;;;14.07;8.13;;;;;;;;;;4999448;28;20212;-83
2022/04/25 08:30:14;;;;;;;14.87;8.90;;;;;;;;;;5002668;28;20224;-82
2022/04/25 08:32:41;;;;;;;11.67;7.53;;;;;;;;;;5003254;28;20204;-83
2022/04/25 08:35:09;;;;;;;12.17;7.43;;;;;;;;;;4998911;28;20312;-81
2022/04/25 08:37:36;;;;;;;10.20;7.47;;;;;;;;;;5001100;28;20232;-83
2022/04/25 08:40:06;;;;;;;12.17;7.80;;;;;;;;;;5001128;28;20604;-82
2022/04/25 08:42:33;;;;;;;12.90;8.13;;;;;;;;;;5007007;28;20203;-83
2022/04/25 08:45:02;;;;;;;13.83;9.37;;;;;;;;;;5000958;28;20205;-83
2022/04/25 08:47:31;;;;;;;20.80;11.70;;;;;;;;;;5001965;28;20288;-83
2022/04/25 08:49:59;;;;;;;15.10;9.47;;;;;;;;;;4995967;28;20675;-84
2022/04/25 08:52:27;;;;;;;13.50;9.27;;;;;;;;;;5003280;28;20288;-82
2022/04/25 08:54:55;;;;;;;16.47;9.30;;;;;;;;;;5001537;28;20204;-83
2022/04/25 08:57:25;;;;;;;16.40;9.70;;;;;;;;;;5001631;28;20703;-83
2022/04/25 08:59:53;;;;;;;19.43;12.43;;;;;;;;;;4997419;28;20224;-82
2022/04/25 09:02:20;;;;;;;16.53;10.20;;;;;;;;;;5000174;28;20207;-83
2022/04/25 09:04:49;;;;;;;14.13;8.97;;;;;;;;;;5002365;28;20229;-83
2022/04/25 09:07:17;;;;;;;13.47;8.83;;;;;;;;;;5007903;28;20235;-82
2022/04/25 09:09:44;;;;;;;16.73;10.37;;;;;;;;;;5010445;28;20741;-82
2022/04/25 09:12:14;;;;;;;13.17;8.47;;;;;;;;;;5006450;28;20291;-83
2022/04/25 09:14:43;;;;;;;14.70;9.07;;;;;;;;;;5006481;28;20216;-82
2022/04/25 09:17:13;;;;;;;18.53;9.00;;;;;;;;;;5004922;28;20220;-82
2022/04/25 09:19:40;;;;;;;15.13;9.43;;;;;;;;;;5005105;28;20288;-83
2022/04/25 09:22:08;;;;;;;13.73;8.80;;;;;;;;;;5008033;28;20201;-84
2022/04/25 09:24:36;;;;;;;13.73;9.13;;;;;;;;;;5006096;28;20235;-82
2022/04/25 09:27:13;;;;;;;15.77;10.00;;;;;;;;;;5005728;28;20696;-83
2022/04/25 09:29:41;;;;;;;18.13;9.97;;;;;;;;;;5006833;28;20246;-84
2022/04/25 09:32:10;;;;;;;18.33;10.53;;;;;;;;;;5004023;28;20208;-84
2022/04/25 09:37:38;;;;;;;15.97;10.27;;;;;;;;;;5004885;28;20242;-83
2022/04/25 09:40:05;;;;;;;17.60;10.40;;;;;;;;;;5008376;28;20224;-83
2022/04/25 09:42:34;;;;;;;15.70;10.20;;;;;;;;;;5009037;28;20208;-83
2022/04/25 09:45:01;;;;;;;14.97;10.27;;;;;;;;;;5011172;28;20212;-83
2022/04/25 09:47:31;;;;;;;15.10;9.60;;;;;;;;;;5009705;28;20317;-82
2022/04/25 09:50:02;;;;;;;17.73;11.23;;;;;;;;;;5004704;28;20250;-82
2022/04/25 09:52:29;;;;;;;15.53;9.93;;;;;;;;;;5011534;28;20216;-83
2022/04/25 09:54:58;;;;;;;16.93;10.50;;;;;;;;;;5014287;28;20208;-83
2022/04/25 09:57:32;;;;;;;14.20;9.47;;;;;;;;;;5014348;28;20239;-83
2022/04/25 09:59:59;;;;;;;16.80;11.17;;;;;;;;;;5011593;28;20331;-84
2022/04/25 10:02:26;;;;;;;17.40;11.07;;;;;;;;;;5010825;28;20240;-83
2022/04/25 10:04:55;;;;;;;14.23;8.90;;;;;;;;;;5006567;28;20298;-83
2022/04/25 10:07:24;;;;;;;14.70;8.20;;;;;;;;;;5010181;28;20703;-83
2022/04/25 10:09:55;;;;;;;13.17;8.93;;;;;;;;;;5006089;28;20296;-83
2022/04/25 10:12:23;;;;;;;13.20;8.83;;;;;;;;;;5010659;28;20295;-84
2022/04/25 10:14:52;;;;;;;13.57;8.83;;;;;;;;;;5002817;28;20205;-83
2022/04/25 10:17:19;;;;;;;14.60;9.80;;;;;;;;;;5006644;28;20596;-83
2022/04/25 10:19:47;;;;;;;13.87;8.37;;;;;;;;;;5004069;28;20332;-84
2022/04/25 10:22:17;;;;;;;13.43;8.63;;;;;;;;;;5007967;28;20201;-83
2022/04/25 10:24:45;;;;;;;12.57;8.47;;;;;;;;;;5009183;28;20200;-84
2022/04/25 10:27:15;;;;;;;14.40;9.00;;;;;;;;;;5007956;28;20208;-83
2022/04/25 10:29:45;;;;;;;14.87;9.33;;;;;;;;;;5009743;28;20216;-83
2022/04/25 10:32:17;;;;;;;13.57;8.63;;;;;;;;;;5007773;28;20547;-84
2022/04/25 10:34:47;;;;;;;14.93;9.47;;;;;;;;;;5008791;28;20235;-83
2022/04/25 10:37:35;;;;;;;15.20;9.93;;;;;;;;;;5008902;28;20212;-83
2022/04/25 10:40:05;;;;;;;17.20;10.27;;;;;;;;;;5000418;28;20584;-83
2022/04/25 10:45:17;;;;;;;17.53;10.63;;;;;;;;;;5007544;28;20216;-83
2022/04/25 10:47:57;;;;;;;17.43;10.60;;;;;;;;;;5010088;28;20295;-82
2022/04/25 10:50:26;;;;;;;21.20;11.07;;;;;;;;;;5006288;28;20801;-83
2022/04/25 10:52:56;;;;;;;17.00;10.20;;;;;;;;;;5009540;28;20454;-83
2022/04/25 10:55:46;;;;;;;15.20;10.23;;;;;;;;;;5007655;28;20275;-83
2022/04/25 10:58:16;;;;;;;14.50;9.80;;;;;;;;;;5014846;28;20267;-83
2022/04/25 11:00:56;;;;;;;15.57;10.20;;;;;;;;;;5010043;28;20271;-82
2022/04/25 11:03:24;;;;;;;17.27;10.10;;;;;;;;;;5010837;28;20563;-83
2022/04/25 11:05:52;;;;;;;15.77;9.73;;;;;;;;;;5010646;28;20618;-83
2022/04/25 11:08:26;;;;;;;15.47;9.97;;;;;;;;;;5005726;28;20205;-82
2022/04/25 11:11:00;;;;;;;12.83;8.50;;;;;;;;;;5009034;28;20224;-83
2022/04/25 11:13:30;;;;;;;16.13;9.57;;;;;;;;;;5006306;28;20208;-84
2022/04/25 11:15:59;;;;;;;18.80;10.37;;;;;;;;;;5011007;28;20208;-84
2022/04/25 11:18:33;;;;;;;19.87;9.87;;;;;;;;;;5008524;28;20338;-84
2022/04/25 11:21:04;;;;;;;17.37;9.67;;;;;;;;;;5011069;28;20215;-84
2022/04/25 11:23:32;;;;;;;14.47;10.10;;;;;;;;;;5001334;28;20291;-86
2022/04/25 11:26:00;;;;;;;14.53;9.87;;;;;;;;;;5001590;28;20296;-84
2022/04/25 11:28:28;;;;;;;16.77;9.80;;;;;;;;;;4998950;28;20215;-83
2022/04/25 11:31:23;;;;;;;15.30;10.40;;;;;;;;;;5000120;28;20315;-82
2022/04/25 11:33:50;;;;;;;13.03;8.93;;;;;;;;;;4962504;28;20687;-83
2022/04/25 11:36:19;;;;;;;17.90;9.80;;;;;;;;;;4999281;28;20197;-83
2022/04/25 11:41:35;;;;;;;15.97;9.43;;;;;;;;;;5002358;28;21016;-82
2022/04/25 11:44:04;;;;;;;14.77;9.37;;;;;;;;;;5000966;28;20275;-82
2022/04/25 11:46:34;;;;;;;12.93;8.57;;;;;;;;;;5003073;28;20543;-83
2022/04/25 11:49:01;;;;;;;16.63;9.00;;;;;;;;;;5006585;28;20224;-83
2022/04/25 11:51:29;;;;;;;12.23;7.87;;;;;;;;;;5005252;28;20220;-82
2022/04/25 11:53:57;;;;;;;13.67;8.03;;;;;;;;;;5008915;28;20228;-83
2022/04/25 11:56:24;;;;;;;16.70;7.67;;;;;;;;;;5007075;28;20240;-83
2022/04/25 11:58:52;;;;;;;13.13;8.40;;;;;;;;;;5006002;28;20221;-84
2022/04/25 12:01:36;;;;;;;13.70;8.47;;;;;;;;;;5002572;28;20248;-83
2022/04/25 12:04:18;;;;;;;14.27;8.70;;;;;;;;;;5004275;28;20211;-84
2022/04/25 12:06:49;;;;;;;14.43;8.60;;;;;;;;;;4998286;28;20201;-84
2022/04/25 12:17:41;;;;;;;18.83;13.70;;;;;;;;;;5010956;28;20208;-84
2022/04/25 12:20:10;;;;;;;12.70;8.57;;;;;;;;;;5009024;28;20234;-84
2022/04/25 12:22:38;;;;;;;13.43;8.07;;;;;;;;;;5005699;28;20201;-84
2022/04/25 12:25:15;;;;;;;13.47;8.20;;;;;;;;;;5003293;28;20213;-84
2022/04/25 12:28:03;;;;;;;12.53;9.17;;;;;;;;;;5021803;28;20196;-80
2022/04/25 12:30:32;;;;;;;12.63;7.83;;;;;;;;;;5023647;28;20235;-80
2022/04/25 12:33:11;;;;;;;12.87;8.07;;;;;;;;;;5023633;28;20208;-85
2022/04/25 12:35:38;;;;;;;12.00;7.83;;;;;;;;;;5010985;28;20193;-80
2022/04/25 12:38:06;;;;;;;11.73;7.37;;;;;;;;;;5007312;28;20209;-82
2022/04/25 12:40:33;;;;;;;12.97;7.07;;;;;;;;;;5007086;28;20530;-81
2022/04/25 12:43:01;;;;;;;11.37;7.60;;;;;;;;;;5005066;28;20314;-81
2022/04/25 12:45:28;;;;;;;10.53;7.60;;;;;;;;;;5002977;28;20209;-84
2022/04/25 12:47:55;;;;;;;12.40;7.67;;;;;;;;;;5002812;28;20312;-83
2022/04/25 12:50:38;;;;;;;12.03;8.10;;;;;;;;;;5005350;28;20298;-83
2022/04/25 12:53:07;;;;;;;10.73;7.83;;;;;;;;;;5003660;28;20224;-83
2022/04/25 12:55:44;;;;;;;10.80;7.30;;;;;;;;;;5009058;28;20250;-82
2022/04/25 12:58:25;;;;;;;11.40;7.23;;;;;;;;;;5011502;23;20751;-82
2022/04/25 13:07:12;;;;;;;12.80;7.50;;;;;;;;;;4960163;28;20820;-83
2022/04/25 13:09:41;;;;;;;10.73;7.20;;;;;;;;;;4946962;28;20760;-83
2022/04/25 13:15:13;;;;;;;14.10;7.50;;;;;;;;;;4946119;28;20649;-83
2022/04/25 13:17:42;;;;;;;11.07;7.60;;;;;;;;;;4943074;28;20234;-83
2022/04/25 13:23:01;;;;;;;9.30;6.90;;;;;;;;;;4948916;28;20289;-83
2022/04/25 13:25:30;;;;;;;11.73;6.90;;;;;;;;;;4942786;28;20567;-82
2022/04/25 13:28:00;;;;;;;10.63;6.73;;;;;;;;;;4942269;28;20312;-83
2022/04/25 13:30:27;;;;;;;14.57;7.73;;;;;;;;;;4947820;28;20254;-82
2022/04/25 13:32:55;;;;;;;10.40;6.83;;;;;;;;;;4949972;28;20597;-85
2022/04/25 13:35:24;;;;;;;9.90;6.97;;;;;;;;;;4949096;28;20210;-85
2022/04/25 13:37:51;;;;;;;9.90;6.70;;;;;;;;;;4942071;28;20285;-85
2022/04/25 13:40:19;;;;;;;17.87;7.20;;;;;;;;;;4945311;28;20222;-85
2022/04/25 13:42:48;;;;;;;11.23;7.13;;;;;;;;;;4947927;28;20214;-86
2022/04/25 13:45:16;;;;;;;12.07;7.33;;;;;;;;;;4948529;28;20228;-85
2022/04/25 13:47:43;;;;;;;10.90;6.73;;;;;;;;;;4948545;28;20997;-85
2022/04/25 13:50:11;;;;;;;13.20;8.57;;;;;;;;;;4944889;28;20289;-82
2022/04/25 13:52:39;;;;;;;10.33;7.17;;;;;;;;;;4948142;28;20293;-83
2022/04/25 13:55:11;;;;;;;11.27;6.97;;;;;;;;;;4945705;28;20707;-84
2022/04/25 13:57:38;;;;;;;13.07;7.07;;;;;;;;;;4948452;28;20269;-84
2022/04/25 14:00:08;;;;;;;7.40;4.80;;;;;;;;;;4950009;28;20333;-84
2022/04/25 14:05:20;;;;;;;7.23;4.70;;;;;;;;;;4945441;28;20257;-82
2022/04/25 14:07:48;;;;;;;7.50;5.00;;;;;;;;;;4966424;28;20297;-82
2022/04/25 14:13:06;;;;;;;7.13;4.90;;;;;;;;;;4950210;28;20225;-83
2022/04/25 14:15:35;;;;;;;9.37;4.93;;;;;;;;;;4950012;29;20230;-83
2022/04/25 14:18:04;;;;;;;7.67;4.67;;;;;;;;;;4952171;28;20321;-81
2022/04/25 14:20:33;;;;;;;8.93;4.67;;;;;;;;;;4950603;28;20592;-83
2022/04/25 14:23:00;;;;;;;7.63;4.70;;;;;;;;;;4951773;28;20210;-83
2022/04/25 14:25:27;;;;;;;5.70;4.27;;;;;;;;;;4948933;28;20710;-83
2022/04/25 14:27:58;;;;;;;9.73;5.20;;;;;;;;;;4946224;28;20233;-82
2022/04/25 14:30:26;;;;;;;6.87;4.50;;;;;;;;;;4954290;28;20235;-82
2022/04/25 14:32:57;;;;;;;6.53;4.73;;;;;;;;;;4956441;28;20243;-82
2022/04/25 14:35:31;;;;;;;7.13;4.73;;;;;;;;;;4952627;28;20288;-83
2022/04/25 14:38:00;;;;;;;6.97;4.20;;;;;;;;;;4948841;28;20233;-84
2022/04/25 14:40:27;;;;;;;6.00;4.33;;;;;;;;;;4949296;28;21173;-82
2022/04/25 14:42:54;;;;;;;7.03;4.10;;;;;;;;;;4953238;28;20202;-84
2022/04/25 14:45:27;;;;;;;6.67;3.90;;;;;;;;;;4946837;28;20210;-83
2022/04/25 14:47:57;;;;;;;5.50;3.67;;;;;;;;;;4957837;28;20237;-84
2022/04/25 14:55:53;;;;;;;5.57;3.80;;;;;;;;;;4954983;28;20388;-83
2022/04/25 14:58:27;;;;;;;6.57;3.30;;;;;;;;;;4953241;28;20654;-83
2022/04/25 15:00:54;;;;;;;6.17;3.90;;;;;;;;;;4949326;28;20311;-83
2022/04/25 15:03:30;;;;;;;4.60;3.60;;;;;;;;;;4953451;28;20728;-83
2022/04/25 15:05:58;;;;;;;5.50;3.60;;;;;;;;;;4948351;28;20496;-84
2022/04/25 15:08:29;;;;;;;4.23;3.37;;;;;;;;;;4940262;28;20298;-83
2022/04/25 15:10:57;;;;;;;5.67;3.63;;;;;;;;;;4948178;28;20325;-82
2022/04/25 15:13:30;;;;;;;6.27;3.50;;;;;;;;;;4948496;28;20214;-84
2022/04/25 15:16:03;;;;;;;5.73;3.23;;;;;;;;;;4953709;28;20294;-84
2022/04/25 15:18:36;;;;;;;6.03;3.33;;;;;;;;;;4950525;28;20235;-83
2022/04/25 15:21:03;;;;;;;5.00;3.20;;;;;;;;;;4954113;28;20249;-83
2022/04/25 15:23:31;;;;;;;5.53;3.17;;;;;;;;;;4954235;28;20218;-83
2022/04/25 15:25:58;;;;;;;4.63;3.03;;;;;;;;;;4954635;28;20198;-83
2022/04/25 15:28:25;;;;;;;4.67;3.30;;;;;;;;;;4955708;28;20222;-82
2022/04/25 15:30:53;;;;;;;5.23;3.53;;;;;;;;;;4948452;28;20226;-82
2022/04/25 15:33:20;;;;;;;5.90;3.10;;;;;;;;;;4951166;28;20215;-82
2022/04/25 15:35:49;;;;;;;6.03;3.50;;;;;;;;;;4949663;28;20293;-83
2022/04/25 15:38:16;;;;;;;4.63;3.03;;;;;;;;;;4951484;28;20721;-82
2022/04/25 15:40:47;;;;;;;4.20;3.07;;;;;;;;;;4953277;28;20227;-82
2022/04/25 15:43:14;;;;;;;4.40;3.13;;;;;;;;;;4950316;28;20214;-83
2022/04/25 15:45:42;;;;;;;4.57;2.90;;;;;;;;;;4952231;28;20248;-83
2022/04/25 15:48:12;;;;;;;4.30;3.10;;;;;;;;;;4952405;28;20259;-83
2022/04/25 15:50:41;;;;;;;3.50;2.80;;;;;;;;;;4952157;29;20663;-84